Detall de PIREP

Printer-friendly versionPDF version

[2016/10/22 08:42:00]
Flight IATA:CT3408
Pilot Number:012
Company ICAO:CAT
Aircraft Type:B463/A
PAX:0
Aircraft Registration:CARGO
Departing Airport: LEBL
Destination Airport: LSGG
Alternate Airport:LFST
Online: VATSIM
Route:DALIN UN870 MAXIR UN853 KINES
Flight Level:F280
No Slew and time accel
No pause
Crash detect
Detect pilot in Cockpit between each 30 and 45 minutes
08:42 Zero fuel Weight: 80402 Lbs, Fuel Weight: 13928 Lbs
08:42 VATSIM:LEBL 220830Z 01006KT 9000 RA SCT020 BKN030 14/13 Q1012 NOSIG
08:42 VATSIM:LSGG 220820Z VRB01KT CAVOK 07/03 Q1015 NOSIG
08:48 Parking Brakes off
08:52 Take-off
08:52 Take off Weight: 93710 Lbs
08:52 Wind: 009º @ 006 Knots Heading: 066º
08:52 POS N41º 17´ 57´´ E002º 05´ 01´´
08:52 Flaps:2 at 143 Knots
08:52 Gear Up: 146 Knots
08:52 Flaps:1 at 147 Knots
08:52 Flaps:0 at 157 Knots
09:06 TOC
09:06 Fuel Weight: 11093 Lb
09:07 Wind:260º@035 Knots Heading: 064º Ground Speed: 420 Knots Altitude 27847 ft
09:22 Wind:271º@043 Knots Heading: 037º Ground Speed: 439 Knots Altitude 28005 ft
09:37 Wind:280º@041 Knots Heading: 020º Ground Speed: 421 Knots Altitude 28038 ft
09:43 TOD
09:43 Fuel Weight: 7611 Lb
09:52 Wind:286º@031 Knots Heading: 290º Ground Speed: 335 Knots Altitude 18083 ft
10:02 Flaps:1 at 195 Knots
10:03 Flaps:2 at 176 Knots
10:05 Gear Down: 149 Knots
10:06 Flaps:3 at 132 Knots
10:07 Wind:141º@001 Knots Heading: 013º Ground Speed: 141 Knots Altitude 5984 ft
10:07 Flaps:4 at 134 Knots
10:12 TouchDown:Rate -219 ft/min Speed: 118 Knots
10:12 VATSIM:LSGG 220950Z VRB02KT 9999 FEW030 09/04 Q1015 NOSIG
10:12 Land
10:12 Wind:070º@001 Knots
10:12 Heading: 054º
10:12 Flight Duration: 01:20
10:12 Landing Weight: 86274 Lbs
10:12 POS N46º 14´ 23´´ E006º 06´ 40´´
10:15 Parking brakes on
10:15 Block to Block Duration: 01:27
10:15 Final Fuel: 5709 Lbls
10:15 Spent Fuel: 8218 Lbls
10:15 Flight Length: 469 NM
10:15 TOD Land Length: 130 NM

Exportar CSV

Powered by Drupal - Modified by Danger4k